createdAt,value
2022-12-20T00:00:15.236Z,10.14
2022-12-20T00:04:19.429Z,10.20
2022-12-20T00:08:22.381Z,10.24
2022-12-20T00:12:25.783Z,10.25
2022-12-20T00:16:29.879Z,10.32
2022-12-20T00:20:34.052Z,10.38
2022-12-20T00:24:37.144Z,10.36
2022-12-20T00:28:40.907Z,10.38
2022-12-20T00:32:44.233Z,10.41
2022-12-20T00:36:48.473Z,10.39
2022-12-20T00:41:01.021Z,10.41
2022-12-20T00:45:04.361Z,10.43
2022-12-20T00:49:07.484Z,10.44
2022-12-20T00:53:11.681Z,10.46
2022-12-20T00:57:14.526Z,10.49
2022-12-20T01:01:20.918Z,10.52
2022-12-20T01:05:24.518Z,10.58
2022-12-20T01:09:28.691Z,10.58
2022-12-20T01:13:32.402Z,10.60
2022-12-20T01:17:35.310Z,10.63
2022-12-20T01:21:39.717Z,10.63
2022-12-20T01:25:43.809Z,10.65
2022-12-20T01:29:46.654Z,10.66
2022-12-20T01:33:51.403Z,10.63
2022-12-20T01:37:54.389Z,10.66
2022-12-20T01:41:58.573Z,10.65
2022-12-20T01:46:01.504Z,10.65
2022-12-20T01:50:06.415Z,10.69
2022-12-20T01:54:15.196Z,10.72
2022-12-20T01:58:21.093Z,10.73
2022-12-20T02:02:24.935Z,10.77
2022-12-20T02:06:28.821Z,10.79
2022-12-20T02:10:47.106Z,10.82
2022-12-20T02:15:05.404Z,10.86
2022-12-20T02:19:17.350Z,10.91
2022-12-20T02:23:59.733Z,10.95
2022-12-20T02:28:08.879Z,10.97
2022-12-20T02:32:21.083Z,11.00
2022-12-20T02:36:25.439Z,10.99
2022-12-20T02:40:33.513Z,11.03
2022-12-20T02:44:55.964Z,10.99
2022-12-20T02:49:04.390Z,11.04
2022-12-20T02:53:09.032Z,11.02
2022-12-20T02:57:20.687Z,10.96
2022-12-20T03:01:29.089Z,10.92
2022-12-20T03:05:36.596Z,10.90
2022-12-20T03:09:41.150Z,10.86
2022-12-20T03:13:44.030Z,10.85
2022-12-20T03:17:46.946Z,10.79
2022-12-20T03:21:51.224Z,10.68
2022-12-20T03:25:54.085Z,10.62
2022-12-20T03:30:15.713Z,10.53
2022-12-20T03:34:19.154Z,10.46
2022-12-20T03:38:23.442Z,10.38
2022-12-20T03:42:26.202Z,10.36
2022-12-20T03:46:29.324Z,10.28
2022-12-20T03:50:32.686Z,10.29
2022-12-20T03:54:38.576Z,10.28
2022-12-20T03:58:48.550Z,10.25
2022-12-20T04:02:52.528Z,10.28
2022-12-20T04:06:55.533Z,10.24
2022-12-20T04:11:18.207Z,10.27
2022-12-20T04:15:26.589Z,10.23
2022-12-20T04:19:29.980Z,10.22
2022-12-20T04:23:33.429Z,10.20
2022-12-20T04:27:37.942Z,10.23
2022-12-20T04:31:43.394Z,10.19
2022-12-20T04:35:46.778Z,10.16
2022-12-20T04:39:49.947Z,10.21
2022-12-20T04:43:59.219Z,10.23
2022-12-20T04:48:37.492Z,10.19
2022-12-20T04:52:50.661Z,10.20
2022-12-20T04:56:54.218Z,10.15
2022-12-20T05:01:00.493Z,10.16
2022-12-20T05:05:10.439Z,10.19
2022-12-20T05:09:19.836Z,10.19
2022-12-20T05:13:22.821Z,10.22
2022-12-20T05:17:27.635Z,10.22
2022-12-20T05:21:48.117Z,10.23
2022-12-20T05:26:09.623Z,10.22
2022-12-20T05:30:15.994Z,10.27
2022-12-20T05:34:21.383Z,10.27
2022-12-20T05:38:29.801Z,10.27
2022-12-20T05:42:33.243Z,10.28
2022-12-20T05:46:36.227Z,10.29
2022-12-20T05:50:46.141Z,10.27
2022-12-20T05:55:02.130Z,10.23
2022-12-20T05:59:05.439Z,10.29
2022-12-20T06:03:09.404Z,10.30
2022-12-20T06:07:14.455Z,10.35
2022-12-20T06:11:23.097Z,10.37
2022-12-20T06:15:35.918Z,10.38
2022-12-20T06:19:40.096Z,10.42
2022-12-20T06:23:46.466Z,10.45
2022-12-20T06:27:50.352Z,10.44
2022-12-20T06:31:54.224Z,10.49
2022-12-20T06:35:57.106Z,10.49
2022-12-20T06:40:01.368Z,10.54
2022-12-20T06:44:05.285Z,10.55
2022-12-20T06:48:08.766Z,10.55
2022-12-20T06:52:11.857Z,10.57
2022-12-20T06:56:27.991Z,10.56
2022-12-20T07:00:31.094Z,10.61
2022-12-20T07:04:34.297Z,10.62
2022-12-20T07:08:37.093Z,10.65
2022-12-20T07:12:47.423Z,10.65
2022-12-20T07:16:51.226Z,10.67
2022-12-20T07:20:54.117Z,10.71
2022-12-20T07:24:56.910Z,10.69
2022-12-20T07:29:01.066Z,10.66
2022-12-20T07:33:03.915Z,10.67
2022-12-20T07:37:08.541Z,10.64
2022-12-20T07:41:13.264Z,10.64
2022-12-20T07:45:17.648Z,10.66
2022-12-20T07:49:20.476Z,10.64
2022-12-20T07:53:25.605Z,10.64
2022-12-20T07:57:33.245Z,10.66
2022-12-20T08:01:37.648Z,10.71
2022-12-20T08:05:43.347Z,10.70
2022-12-20T08:09:47.664Z,10.68
2022-12-20T08:13:57.286Z,10.71
2022-12-20T08:18:02.126Z,10.75
2022-12-20T08:22:05.168Z,10.79
2022-12-20T08:26:08.310Z,10.82
2022-12-20T08:30:12.044Z,10.85
2022-12-20T08:34:16.252Z,10.88
2022-12-20T08:38:19.054Z,10.91
2022-12-20T08:42:22.913Z,10.97
2022-12-20T08:46:25.827Z,11.02
2022-12-20T08:50:30.217Z,11.06
2022-12-20T08:54:32.983Z,11.08
2022-12-20T08:58:35.902Z,11.10
2022-12-20T09:02:39.147Z,11.18
2022-12-20T09:06:43.370Z,11.25
2022-12-20T09:10:46.143Z,11.35
2022-12-20T09:14:48.904Z,11.40
2022-12-20T09:18:52.013Z,11.42
2022-12-20T09:22:56.129Z,11.51
2022-12-20T09:26:58.906Z,11.53
2022-12-20T09:31:02.317Z,11.55
2022-12-20T09:35:05.508Z,11.59
2022-12-20T09:39:09.900Z,11.64
2022-12-20T09:43:13.695Z,11.70
2022-12-20T09:47:21.207Z,11.74
2022-12-20T09:51:45.255Z,11.80
2022-12-20T09:55:54.559Z,11.75
2022-12-20T09:59:58.143Z,11.68
2022-12-20T10:04:06.791Z,11.50
2022-12-20T10:08:17.808Z,11.42
2022-12-20T10:12:34.263Z,11.31
2022-12-20T10:16:43.075Z,11.23
2022-12-20T10:20:56.861Z,11.16
2022-12-20T10:25:02.941Z,11.07
2022-12-20T10:29:07.625Z,11.02
2022-12-20T10:33:18.174Z,10.97
2022-12-20T10:37:20.891Z,10.97
2022-12-20T10:41:25.407Z,10.97
2022-12-20T10:45:36.477Z,11.00
2022-12-20T10:49:41.183Z,11.04
2022-12-20T10:53:56.374Z,11.02
2022-12-20T10:58:04.410Z,11.02
2022-12-20T11:02:26.336Z,11.01
2022-12-20T11:06:41.336Z,10.97
2022-12-20T11:10:45.302Z,10.98
2022-12-20T11:14:49.262Z,10.96
2022-12-20T11:19:04.301Z,10.97
2022-12-20T11:23:23.816Z,10.98
2022-12-20T11:27:34.257Z,11.03
2022-12-20T11:31:49.569Z,11.03
2022-12-20T11:36:01.487Z,11.09
2022-12-20T11:40:17.376Z,11.12
2022-12-20T11:44:30.343Z,11.16
2022-12-20T11:48:50.134Z,11.19
2022-12-20T11:52:59.684Z,11.22
2022-12-20T11:57:10.940Z,11.26
2022-12-20T12:01:17.965Z,11.26
2022-12-20T12:05:25.329Z,11.28
2022-12-20T12:09:36.346Z,11.29
2022-12-20T12:13:41.558Z,11.31
2022-12-20T12:17:49.507Z,11.29
2022-12-20T12:22:01.577Z,11.25
2022-12-20T12:26:11.789Z,11.22
2022-12-20T12:30:15.971Z,11.19
2022-12-20T12:34:31.408Z,11.14
2022-12-20T12:39:02.600Z,11.14
2022-12-20T12:43:24.840Z,11.10
2022-12-20T12:47:36.359Z,11.07
2022-12-20T12:51:42.309Z,11.05
2022-12-20T12:55:47.044Z,11.05
2022-12-20T12:59:52.538Z,11.01
2022-12-20T13:04:11.615Z,10.97
2022-12-20T13:08:18.652Z,10.93
2022-12-20T13:12:56.261Z,10.90
2022-12-20T13:21:36.550Z,10.91
2022-12-20T13:25:41.137Z,10.89
2022-12-20T13:29:58.957Z,10.91
2022-12-20T13:34:04.053Z,10.89
2022-12-20T13:38:46.979Z,10.86
2022-12-20T13:42:54.927Z,10.85
2022-12-20T13:47:03.414Z,10.84
2022-12-20T13:51:08.064Z,10.81
2022-12-20T13:55:27.815Z,10.78
2022-12-20T13:59:33.332Z,10.77
2022-12-20T14:03:42.691Z,10.80
2022-12-20T14:07:49.026Z,10.78
2022-12-20T14:11:53.218Z,10.79
2022-12-20T14:15:57.421Z,10.78
2022-12-20T14:20:08.162Z,10.77
2022-12-20T14:24:16.754Z,10.76
2022-12-20T14:28:31.978Z,10.75
2022-12-20T14:32:34.760Z,10.74
2022-12-20T14:36:38.417Z,10.77
2022-12-20T14:40:42.916Z,10.73
2022-12-20T14:44:48.308Z,10.73
2022-12-20T14:49:09.155Z,10.70
2022-12-20T14:53:20.250Z,10.70
2022-12-20T14:57:25.738Z,10.71
2022-12-20T15:01:37.221Z,10.67
2022-12-20T15:05:47.326Z,10.63
2022-12-20T15:09:50.167Z,10.65
2022-12-20T15:13:55.577Z,10.63
2022-12-20T15:17:59.955Z,10.65
2022-12-20T15:22:03.105Z,10.70
2022-12-20T15:26:06.169Z,10.69
2022-12-20T15:30:13.866Z,10.71
2022-12-20T15:34:23.439Z,10.68
2022-12-20T15:38:55.220Z,10.70
2022-12-20T15:42:50.594Z,10.71
2022-12-20T15:46:53.822Z,10.73
2022-12-20T15:50:59.341Z,10.73
2022-12-20T15:55:02.229Z,10.71
2022-12-20T15:59:24.520Z,10.73
2022-12-20T16:03:32.685Z,10.76
2022-12-20T16:07:37.062Z,10.73
2022-12-20T16:11:40.602Z,10.74
2022-12-20T16:15:44.076Z,10.74
2022-12-20T16:19:47.259Z,10.70
2022-12-20T16:23:51.991Z,10.69
2022-12-20T16:27:54.831Z,10.70
2022-12-20T16:31:57.787Z,10.71
2022-12-20T16:36:00.642Z,10.74
2022-12-20T16:40:05.435Z,10.71
2022-12-20T16:44:13.655Z,10.71
2022-12-20T16:48:16.423Z,10.70
2022-12-20T16:52:19.699Z,10.69
2022-12-20T16:56:24.508Z,10.67
2022-12-20T17:00:27.986Z,10.65
2022-12-20T17:04:30.863Z,10.64
2022-12-20T17:12:56.171Z,10.64
2022-12-20T17:16:59.829Z,10.62
2022-12-20T17:21:04.433Z,10.64
2022-12-20T17:25:07.584Z,10.64
2022-12-20T17:29:12.035Z,10.63
2022-12-20T17:33:16.349Z,10.63
2022-12-20T17:37:19.353Z,10.63
2022-12-20T17:41:25.205Z,10.63
2022-12-20T17:45:32.403Z,10.61
2022-12-20T17:49:35.278Z,10.60
2022-12-20T17:53:38.026Z,10.60
2022-12-20T17:57:40.838Z,10.60
2022-12-20T18:01:45.861Z,10.59
2022-12-20T18:05:48.800Z,10.61
2022-12-20T18:09:51.859Z,10.59
2022-12-20T18:13:58.401Z,10.60
2022-12-20T18:18:02.604Z,10.62
2022-12-20T18:22:06.465Z,10.61
2022-12-20T18:26:12.490Z,10.61
2022-12-20T18:30:15.589Z,10.61
2022-12-20T18:34:19.753Z,10.64
2022-12-20T18:38:23.395Z,10.61
2022-12-20T18:42:26.192Z,10.56
2022-12-20T18:46:42.695Z,10.58
2022-12-20T18:50:46.895Z,10.59
2022-12-20T18:54:49.753Z,10.62
2022-12-20T18:58:53.504Z,10.60
2022-12-20T19:02:59.303Z,10.59
2022-12-20T19:07:03.555Z,10.59
2022-12-20T19:11:08.661Z,10.58
2022-12-20T19:15:11.800Z,10.55
2022-12-20T19:19:14.668Z,10.54
2022-12-20T19:23:20.588Z,10.51
2022-12-20T19:27:23.608Z,10.55
2022-12-20T19:31:28.810Z,10.52
2022-12-20T19:35:54.856Z,10.53
2022-12-20T19:39:55.883Z,10.51
2022-12-20T19:43:59.127Z,10.52
2022-12-20T19:48:01.943Z,10.47
2022-12-20T19:52:05.669Z,10.48
2022-12-20T19:56:10.904Z,10.47
2022-12-20T20:00:14.931Z,10.48
2022-12-20T20:04:17.901Z,10.46
2022-12-20T20:08:20.681Z,10.46
2022-12-20T20:12:24.874Z,10.48
2022-12-20T20:16:27.708Z,10.48
2022-12-20T20:20:30.489Z,10.48
2022-12-20T20:24:33.341Z,10.49
2022-12-20T20:28:44.363Z,10.45
2022-12-20T20:32:48.259Z,10.48
2022-12-20T20:36:51.079Z,10.47
2022-12-20T20:40:54.191Z,10.48
2022-12-20T20:44:58.431Z,10.48
2022-12-20T20:49:05.834Z,10.44
2022-12-20T20:53:08.692Z,10.44
2022-12-20T20:57:11.458Z,10.47
2022-12-20T21:01:15.826Z,10.47
2022-12-20T21:09:41.798Z,10.45
2022-12-20T21:13:44.647Z,10.45
2022-12-20T21:17:48.810Z,10.48
2022-12-20T21:21:51.636Z,10.48
2022-12-20T21:25:57.375Z,10.47
2022-12-20T21:30:00.191Z,10.46
2022-12-20T21:34:04.452Z,10.44
2022-12-20T21:38:07.216Z,10.47
2022-12-20T21:42:10.383Z,10.48
2022-12-20T21:46:13.447Z,10.45
2022-12-20T21:50:17.821Z,10.43
2022-12-20T21:54:20.708Z,10.46
2022-12-20T21:58:23.845Z,10.49
2022-12-20T22:02:26.730Z,10.48
2022-12-20T22:06:31.552Z,10.46
2022-12-20T22:10:34.518Z,10.48
2022-12-20T22:14:37.308Z,10.50
2022-12-20T22:18:41.343Z,10.46
2022-12-20T22:22:45.488Z,10.47
2022-12-20T22:26:48.245Z,10.47
2022-12-20T22:30:52.188Z,10.46
2022-12-20T22:34:55.032Z,10.45
2022-12-20T22:38:59.568Z,10.47
2022-12-20T22:43:02.364Z,10.43
2022-12-20T22:47:06.024Z,10.44
2022-12-20T22:51:10.710Z,10.45
2022-12-20T22:55:14.917Z,10.42
2022-12-20T22:59:17.724Z,10.44
2022-12-20T23:03:20.672Z,10.42
2022-12-20T23:07:23.603Z,10.38
2022-12-20T23:11:46.729Z,10.37
2022-12-20T23:15:49.773Z,10.43
2022-12-20T23:20:24.425Z,10.45
2022-12-20T23:24:27.293Z,10.47
2022-12-20T23:28:31.510Z,10.47
2022-12-20T23:32:34.323Z,10.46
2022-12-20T23:36:37.846Z,10.46
2022-12-20T23:40:41.391Z,10.47
2022-12-20T23:44:45.636Z,10.46
2022-12-20T23:48:48.628Z,10.46
2022-12-20T23:52:51.387Z,10.44
2022-12-20T23:56:54.181Z,10.47
